• Join FlightAware (Why Join?)
  • Login
  • US Flag 
01:58AM EDT


 

Airport Tracker/Info


-or-


 

Live Flight TrackerFlight Track Log ✈ EJA831 ✈ 08-May-2013 ✈ KOTH - KSFO

Flight Track Log - Related Links

Times and Time Zones

All times are in EDT time to prevent confusion due to time zone crossing. See the EJA831 flight status page for this flight to view local times or setup timezone preferences in your user account.

Time Position Orientation Groundspeed Altitude Reporting Facility
EDT Latitude Longitude Course Direction KTS MPH feet Rate Location/Type
06:04PM 43.4083 -124.1439 126° Southeast 231 266 6,300  Level Seattle Center
06:05PM 42.9691 -124.0899 166° South  Level Estimated
06:05PM 43.3769 -124.0328 111° Southeast 268 308 9,900  Level Seattle Center
06:06PM 42.8944 -124.0639 166° South  Level Estimated
06:06PM 43.3458 -123.9247 112° Southeast 289 333 13,100  Level Seattle Center
06:07PM 42.8198 -124.0380 166° South  Level Estimated
06:07PM 43.3136 -123.8161 112° Southeast 301 346 16,200  Level Seattle Center
06:08PM 42.7451 -124.0121 166° South  Level Estimated
06:08PM 43.2778 -123.7047 114° Southeast 315 362 19,000  Level Seattle Center
06:09PM 42.6704 -123.9864 166° South  Level Estimated
06:09PM 43.1917 -123.6664 162° South 334 384 21,700  Level Seattle Center
06:10PM 43.0981 -123.6511 173° South 340 391 23,800 1,980 Climbing Seattle Center
06:11PM 42.9978 -123.6344 173° South 356 410 25,800 1,920 Climbing Seattle Center
06:12PM 42.8967 -123.6172 173° South 364 419 27,800 1,860 Climbing Seattle Center
06:13PM 42.7947 -123.5994 173° South 367 422 29,700 1,380 Climbing Seattle Center
06:14PM 42.6878 -123.5819 173° South 381 438 30,700 600 Climbing Seattle Center
06:15PM 42.5775 -123.5625 173° South 395 455 31,000 120 Climbing Seattle Center
06:16PM 42.4386 -123.5403 173° South 414 476 31,000  Level Seattle Center
06:17PM 42.3250 -123.5203 173° South 414 476 31,000  Level Seattle Center
06:19PM 42.2103 -123.5031 174° South 415 478 31,000  Level Seattle Center
06:20PM 42.0958 -123.4844 173° South 415 478 31,000  Level Seattle Center
06:21PM 41.9850 -123.4653 173° South 406 467 31,000  Level Seattle Center
06:22PM 41.8731 -123.4472 173° South 407 468 31,000  Level Seattle Center
06:23PM 41.7594 -123.4544 183° South 414 476 31,000  Level Seattle Center
06:24PM 41.6431 -123.4775 188° South 421 484 31,000  Level Seattle Center
06:25PM 41.5300 -123.5164 194° South 422 486 31,000  Level Seattle Center
06:26PM 41.4142 -123.5497 192° South 426 490 31,000  Level Seattle Center
06:27PM 41.2875 -123.5639 185° South 426 490 31,000  Level Seattle Center
06:28PM 41.1689 -123.5861 188° South 430 495 31,000  Level Seattle Center
06:29PM 41.0508 -123.5978 184° South 424 488 31,000  Level Seattle Center
06:30PM 40.9306 -123.5872 176° South 431 496 31,000  Level Seattle Center
06:31PM 40.8117 -123.5617 171° South 431 496 31,000  Level Seattle Center
06:32PM 40.6919 -123.5353 171° South 433 498 31,000  Level Seattle Center
06:33PM 40.5475 -123.5000 169° South 437 503 31,000  Level Seattle Center
06:34PM 40.4281 -123.4703 169° South 435 501 31,000  Level Seattle Center
06:35PM 40.3097 -123.4408 169° South 431 496 31,000  Level Seattle Center
06:36PM 40.1911 -123.4092 168° South 433 498 31,000  Level Oakland Center
06:37PM 40.0725 -123.3769 168° South 434 499 31,000  Level Oakland Center
06:38PM 39.9553 -123.3464 169° South 430 495 31,000  Level Oakland Center
06:39PM 39.8383 -123.3167 169° South 428 493 31,000  Level Oakland Center
06:40PM 39.6961 -123.2778 168° South 433 498 31,000  Level Oakland Center
06:41PM 39.5789 -123.2467 168° South 432 497 31,000  Level Oakland Center
06:42PM 39.4567 -123.2150 169° South 428 493 31,000  Level Oakland Center
06:43PM 39.3389 -123.1864 169° South 430 495 31,000 -60 Level Oakland Center
06:44PM 39.2225 -123.1550 168° South 429 494 30,900 -960 Descending Oakland Center
06:45PM 39.1058 -123.1264 169° South 429 494 29,100 -1,860 Descending Oakland Center
06:46PM 38.9897 -123.0958 168° South 426 490 27,100 -1,980 Descending Oakland Center
06:47PM 38.8747 -123.0658 169° South 423 487 25,100 -1,980 Descending Oakland Center
06:48PM 38.7625 -123.0386 169° South 412 474 23,100 -1,980 Descending Oakland Center
06:49PM 38.6542 -123.0114 169° South 401 461 21,100 -1,980 Descending Oakland Center
06:50PM 38.5475 -122.9864 170° South 394 453 19,100 -1,800 Descending Oakland Center
06:51PM 38.4250 -122.9550 169° South 379 436 17,500 -1,560 Descending Oakland Center
06:52PM 38.3258 -122.9303 169° South 369 425 16,000 -1,500 Descending Oakland Center
06:53PM 38.2300 -122.9061 169° South 357 411 14,500 -1,500 Descending Oakland Center
06:54PM 38.1358 -122.8828 169° South 350 403 13,000 -1,500 Descending Oakland Center
06:55PM 38.0506 -122.8356 156° South 348 400 11,500 -1,020 Descending Oakland Center
06:56PM 37.9806 -122.7606 140° Southeast 334 384 11,000 -300 Descending Oakland Center
06:57PM 37.9103 -122.6861 140° Southeast 336 387 11,000  Level Oakland Center
06:58PM 37.8267 -122.5964 140° Southeast 339 390 11,000  Level Oakland Center
06:59PM 37.7564 -122.5203 139° Southeast 339 390 11,000  Level Oakland Center
07:00PM 37.6967 -122.4561 140° Southeast 269 310 11,000  Level Oakland Center
07:01PM 37.6428 -122.3986 140° Southeast 255 293 11,000 -180 Level Oakland Center
07:02PM 37.5875 -122.3444 142° Southeast 253 291 10,700 -1,140 Descending Oakland Center
07:03PM 37.5217 -122.3094 157° South 255 293 8,700 -1,800 Descending Oakland Center
07:05PM 37.4742 -122.2567 139° Southeast 234 269 7,100 -1,500 Descending Oakland Center
07:06PM 37.4736 -122.1797 90° East 224 258 5,700 -1,260 Descending Oakland Center
07:07PM 37.5278 -122.1703 North 223 257 4,600 -1,380 Descending Oakland Center
07:08PM 37.5569 -122.2281 303° West 202 232 3,000 -1,500 Descending Oakland Center
07:09PM 37.5775 -122.2783 297° West 181 208 1,600 -1,140 Descending Oakland Center
07:10PM 37.5950 -122.3197 298° West 154 177 700 -720 Descending Oakland Center
07:11PM 37.6114 -122.3586 298° West 137 158 200 -540 Descending Oakland Center